createdAt,value
2022-10-20T00:00:01.343Z,46.5880
2022-10-20T00:00:12.534Z,46.5940
2022-10-20T00:00:23.654Z,46.5940
2022-10-20T00:00:34.724Z,46.5880
2022-10-20T00:00:45.816Z,46.5880
2022-10-20T00:00:56.863Z,46.5760
2022-10-20T00:01:07.919Z,46.5700
2022-10-20T00:01:19.093Z,46.5940
2022-10-20T00:01:30.305Z,46.5880
2022-10-20T00:01:41.533Z,46.6120
2022-10-20T00:01:52.707Z,46.6000
2022-10-20T00:02:03.753Z,46.6160
2022-10-20T00:02:14.864Z,46.5980
2022-10-20T00:02:26.055Z,46.5940
2022-10-20T00:02:37.526Z,46.6040
2022-10-20T00:02:48.798Z,46.6340
2022-10-20T00:02:59.876Z,46.6280
2022-10-20T00:03:10.912Z,46.5900
2022-10-20T00:03:21.973Z,46.6060
2022-10-20T00:03:33.182Z,46.6000
2022-10-20T00:03:44.375Z,46.5940
2022-10-20T00:03:55.574Z,46.6120
2022-10-20T00:04:06.784Z,46.6120
2022-10-20T00:04:17.976Z,46.6000
2022-10-20T00:04:29.182Z,46.6060
2022-10-20T00:04:40.374Z,46.5820
2022-10-20T00:04:51.583Z,46.6060
2022-10-20T00:05:02.633Z,46.5820
2022-10-20T00:05:13.686Z,46.5820
2022-10-20T00:05:24.744Z,46.5940
2022-10-20T00:05:35.791Z,46.5780
2022-10-20T00:05:46.934Z,46.5780
2022-10-20T00:05:58.142Z,46.5780
2022-10-20T00:06:09.190Z,46.5840
2022-10-20T00:06:20.231Z,46.5820
2022-10-20T00:06:31.293Z,46.5820
2022-10-20T00:06:42.372Z,46.5940
2022-10-20T00:06:53.502Z,46.5820
2022-10-20T00:07:04.696Z,46.5820
2022-10-20T00:07:15.745Z,46.5880
2022-10-20T00:07:26.814Z,46.5880
2022-10-20T00:07:37.973Z,46.5880
2022-10-20T00:07:49.066Z,46.5940
2022-10-20T00:08:00.123Z,46.5880
2022-10-20T00:08:11.254Z,46.5940
2022-10-20T00:08:22.371Z,46.5940
2022-10-20T00:08:33.399Z,46.5880
2022-10-20T00:08:44.592Z,46.5820
2022-10-20T00:08:55.889Z,46.5900
2022-10-20T00:09:07.357Z,46.6120
2022-10-20T00:09:18.454Z,46.5820
2022-10-20T00:09:29.666Z,46.6060
2022-10-20T00:09:40.862Z,46.6120
2022-10-20T00:09:51.954Z,46.6100
2022-10-20T00:10:03.026Z,46.6100
2022-10-20T00:10:14.143Z,46.6040
2022-10-20T00:10:25.245Z,46.6100
2022-10-20T00:10:36.315Z,46.6040
2022-10-20T00:10:47.465Z,46.6060
2022-10-20T00:10:58.497Z,46.6120
2022-10-20T00:11:09.566Z,46.6000
2022-10-20T00:11:20.701Z,46.5940
2022-10-20T00:11:31.748Z,46.6000
2022-10-20T00:11:42.793Z,46.5880
2022-10-20T00:11:53.844Z,46.5700
2022-10-20T00:12:04.904Z,46.5760
2022-10-20T00:12:16.063Z,46.6000
2022-10-20T00:12:27.254Z,46.6120
2022-10-20T00:12:38.657Z,46.6060
2022-10-20T00:12:50.024Z,46.6380
2022-10-20T00:13:01.174Z,46.6060
2022-10-20T00:13:12.401Z,46.6000
2022-10-20T00:13:23.574Z,46.5880
2022-10-20T00:13:34.623Z,46.5840
2022-10-20T00:13:45.664Z,46.5780
2022-10-20T00:13:56.854Z,46.5840
2022-10-20T00:14:08.053Z,46.5760
2022-10-20T00:14:19.254Z,46.5980
2022-10-20T00:14:30.462Z,46.5980
2022-10-20T00:14:41.653Z,46.5840
2022-10-20T00:14:52.854Z,46.5900
2022-10-20T00:15:04.072Z,46.5840
2022-10-20T00:15:15.263Z,46.5780
2022-10-20T00:15:26.341Z,46.5840
2022-10-20T00:15:37.392Z,46.5780
2022-10-20T00:15:48.540Z,46.5360
2022-10-20T00:15:59.734Z,46.5540
2022-10-20T00:16:10.935Z,46.5660
2022-10-20T00:16:22.152Z,46.5660
2022-10-20T00:16:33.333Z,46.5580
2022-10-20T00:16:44.533Z,46.5380
2022-10-20T00:16:55.733Z,46.5540
2022-10-20T00:17:06.943Z,46.5480
2022-10-20T00:17:18.141Z,46.5600
2022-10-20T00:17:29.336Z,46.5660
2022-10-20T00:17:40.384Z,46.5540
2022-10-20T00:17:51.481Z,46.5600
2022-10-20T00:18:02.613Z,46.5600
2022-10-20T00:18:13.813Z,46.5540
2022-10-20T00:18:25.019Z,46.5600
2022-10-20T00:18:36.221Z,46.5780
2022-10-20T00:18:47.414Z,46.5780
2022-10-20T00:18:58.625Z,46.5780
2022-10-20T00:19:09.823Z,46.5720
2022-10-20T00:19:21.013Z,46.5600
2022-10-20T00:19:32.222Z,46.5480
2022-10-20T00:19:43.271Z,46.5540
2022-10-20T00:19:54.384Z,46.5360
2022-10-20T00:20:05.557Z,46.5480
2022-10-20T00:20:16.705Z,46.5580
2022-10-20T00:20:27.935Z,46.5440
2022-10-20T00:20:39.102Z,46.5540
2022-10-20T00:20:50.301Z,46.5540
2022-10-20T00:21:01.493Z,46.5600
2022-10-20T00:21:12.694Z,46.5600
2022-10-20T00:21:23.894Z,46.5720
2022-10-20T00:21:35.102Z,46.5780
2022-10-20T00:21:46.153Z,46.5720
2022-10-20T00:21:57.215Z,46.5600
2022-10-20T00:22:08.273Z,46.5780
2022-10-20T00:22:19.323Z,46.5720
2022-10-20T00:22:30.453Z,46.5720
2022-10-20T00:22:41.654Z,46.5600
2022-10-20T00:22:52.752Z,46.5780
2022-10-20T00:23:03.793Z,46.5720
2022-10-20T00:23:14.934Z,46.5780
2022-10-20T00:23:26.169Z,46.5780
2022-10-20T00:23:37.342Z,46.5980
2022-10-20T00:23:48.534Z,46.5900
2022-10-20T00:23:59.742Z,46.5900
2022-10-20T00:24:10.933Z,46.5840
2022-10-20T00:24:22.143Z,46.5720
2022-10-20T00:24:33.341Z,46.5780
2022-10-20T00:24:44.533Z,46.5780
2022-10-20T00:24:55.583Z,46.5900
2022-10-20T00:25:06.626Z,46.5600
2022-10-20T00:25:17.822Z,46.5660
2022-10-20T00:25:29.073Z,46.5660
2022-10-20T00:25:40.212Z,46.5780
2022-10-20T00:25:51.421Z,46.5780
2022-10-20T00:26:02.622Z,46.5840
2022-10-20T00:26:13.836Z,46.5840
2022-10-20T00:26:25.012Z,46.5780
2022-10-20T00:26:36.219Z,46.5780
2022-10-20T00:26:47.415Z,46.5840
2022-10-20T00:26:58.463Z,46.5780
2022-10-20T00:27:09.541Z,46.5720
2022-10-20T00:27:20.697Z,46.5900
2022-10-20T00:27:31.894Z,46.5940
2022-10-20T00:27:42.941Z,46.6000
2022-10-20T00:27:54.025Z,46.5880
2022-10-20T00:28:05.080Z,46.5880
2022-10-20T00:28:16.751Z,46.6000
2022-10-20T00:28:27.901Z,46.5880
2022-10-20T00:28:38.934Z,46.5880
2022-10-20T00:28:49.983Z,46.5940
2022-10-20T00:29:01.176Z,46.5820
2022-10-20T00:29:12.457Z,46.6000
2022-10-20T00:29:23.583Z,46.6060
2022-10-20T00:29:34.790Z,46.6000
2022-10-20T00:29:45.954Z,46.6060
2022-10-20T00:29:57.174Z,46.5880
2022-10-20T00:30:08.384Z,46.6000
2022-10-20T00:30:21.449Z,46.5880
2022-10-20T00:30:35.039Z,46.8040
2022-10-20T00:30:46.143Z,46.6840
2022-10-20T00:30:57.333Z,46.6160
2022-10-20T00:31:08.374Z,46.6120
2022-10-20T00:31:19.443Z,46.6060
2022-10-20T00:31:30.491Z,46.5780
2022-10-20T00:31:41.561Z,46.5720
2022-10-20T00:31:52.702Z,46.5660
2022-10-20T00:32:03.754Z,46.5780
2022-10-20T00:32:14.804Z,46.5780
2022-10-20T00:32:25.981Z,46.5660
2022-10-20T00:32:37.463Z,46.5900
2022-10-20T00:32:49.072Z,46.6220
2022-10-20T00:33:00.214Z,46.5840
2022-10-20T00:33:11.415Z,46.5840
2022-10-20T00:33:22.621Z,46.5900
2022-10-20T00:33:33.823Z,46.5900
2022-10-20T00:33:45.015Z,46.5780
2022-10-20T00:33:56.214Z,46.5780
2022-10-20T00:34:07.315Z,46.5660
2022-10-20T00:34:18.391Z,46.5720
2022-10-20T00:34:29.453Z,46.5780
2022-10-20T00:34:40.513Z,46.5600
2022-10-20T00:34:51.574Z,46.5720
2022-10-20T00:35:02.773Z,46.5780
2022-10-20T00:35:13.973Z,46.5720
2022-10-20T00:35:25.021Z,46.5840
2022-10-20T00:35:36.095Z,46.5900
2022-10-20T00:35:47.262Z,46.5720
2022-10-20T00:35:58.466Z,46.5700
2022-10-20T00:36:09.654Z,46.5940
2022-10-20T00:36:20.853Z,46.5940
2022-10-20T00:36:32.067Z,46.6000
2022-10-20T00:36:46.252Z,46.6100
2022-10-20T00:37:00.219Z,46.8500
2022-10-20T00:37:11.422Z,46.7720
2022-10-20T00:37:22.623Z,46.7240
2022-10-20T00:37:33.819Z,46.6920
2022-10-20T00:37:44.854Z,46.6700
2022-10-20T00:37:55.894Z,46.6340
2022-10-20T00:38:07.169Z,46.6400
2022-10-20T00:38:29.358Z,46.6400
2022-10-20T00:38:40.382Z,46.6280
2022-10-20T00:38:51.436Z,46.6280
2022-10-20T00:39:02.494Z,46.6220
2022-10-20T00:39:13.543Z,46.6160
2022-10-20T00:39:24.605Z,46.6220
2022-10-20T00:39:35.734Z,46.6400
2022-10-20T00:39:46.952Z,46.6280
2022-10-20T00:39:57.991Z,46.6280
2022-10-20T00:40:09.055Z,46.6280
2022-10-20T00:40:20.213Z,46.6160
2022-10-20T00:40:31.294Z,46.6220
2022-10-20T00:40:42.406Z,46.6280
2022-10-20T00:40:53.503Z,46.6220
2022-10-20T00:41:04.544Z,46.6160
2022-10-20T00:41:15.576Z,46.6220
2022-10-20T00:41:26.782Z,46.6160
2022-10-20T00:41:37.981Z,46.6120
2022-10-20T00:41:49.191Z,46.6180
2022-10-20T00:42:00.381Z,46.6380
2022-10-20T00:42:11.423Z,46.6160
2022-10-20T00:42:22.469Z,46.6100
2022-10-20T00:42:34.072Z,46.6100
2022-10-20T00:42:45.570Z,46.6580
2022-10-20T00:42:56.702Z,46.6280
2022-10-20T00:43:07.763Z,46.6100
2022-10-20T00:43:18.823Z,46.6120
2022-10-20T00:43:29.973Z,46.6120
2022-10-20T00:43:41.027Z,46.6120
2022-10-20T00:43:52.087Z,46.6060
2022-10-20T00:44:03.256Z,46.5940
2022-10-20T00:44:14.303Z,46.6040
2022-10-20T00:44:25.382Z,46.5980
2022-10-20T00:44:36.534Z,46.5840
2022-10-20T00:44:47.741Z,46.5780
2022-10-20T00:44:58.955Z,46.5840
2022-10-20T00:45:10.144Z,46.5900
2022-10-20T00:45:21.339Z,46.5980
2022-10-20T00:45:32.534Z,46.5840
2022-10-20T00:45:43.773Z,46.5840
2022-10-20T00:45:54.933Z,46.6040
2022-10-20T00:46:06.140Z,46.5840
2022-10-20T00:46:17.173Z,46.5840
2022-10-20T00:46:28.221Z,46.5980
2022-10-20T00:46:39.414Z,46.5720
2022-10-20T00:46:50.633Z,46.5900
2022-10-20T00:47:01.733Z,46.5900
2022-10-20T00:47:12.805Z,46.5840
2022-10-20T00:47:23.871Z,46.5980
2022-10-20T00:47:35.182Z,46.6040
2022-10-20T00:47:57.495Z,46.5980
2022-10-20T00:48:08.551Z,46.6040
2022-10-20T00:48:19.621Z,46.5840
2022-10-20T00:48:30.672Z,46.5840
2022-10-20T00:48:41.742Z,46.5840
2022-10-20T00:48:52.856Z,46.5840
2022-10-20T00:49:04.066Z,46.5980
2022-10-20T00:49:15.105Z,46.5940
2022-10-20T00:49:26.182Z,46.5940
2022-10-20T00:49:37.333Z,46.6120
2022-10-20T00:49:48.533Z,46.6180
2022-10-20T00:49:59.732Z,46.6060
2022-10-20T00:50:10.942Z,46.6120
2022-10-20T00:50:22.134Z,46.6240
2022-10-20T00:50:33.181Z,46.6180
2022-10-20T00:50:44.352Z,46.5880
2022-10-20T00:50:55.419Z,46.6060
2022-10-20T00:51:06.624Z,46.6060
2022-10-20T00:51:17.823Z,46.6120
2022-10-20T00:51:28.867Z,46.6060
2022-10-20T00:51:39.966Z,46.5820
2022-10-20T00:51:51.103Z,46.5880
2022-10-20T00:52:02.292Z,46.6060
2022-10-20T00:52:13.500Z,46.6060
2022-10-20T00:52:24.706Z,46.6060
2022-10-20T00:52:36.208Z,46.6120
2022-10-20T00:52:47.783Z,46.6620
2022-10-20T00:52:58.942Z,46.6220
2022-10-20T00:53:10.141Z,46.6240
2022-10-20T00:53:21.341Z,46.6220
2022-10-20T00:53:32.408Z,46.6160
2022-10-20T00:53:43.453Z,46.6220
2022-10-20T00:53:54.614Z,46.6220
2022-10-20T00:54:05.816Z,46.6220
2022-10-20T00:54:17.020Z,46.6400
2022-10-20T00:54:28.219Z,46.6460
2022-10-20T00:54:39.254Z,46.6400
2022-10-20T00:54:50.303Z,46.6460
2022-10-20T00:55:01.493Z,46.6340
2022-10-20T00:55:12.703Z,46.6460
2022-10-20T00:55:23.901Z,46.6460
2022-10-20T00:55:35.095Z,46.6400
2022-10-20T00:55:46.323Z,46.6580
2022-10-20T00:55:57.493Z,46.6700
2022-10-20T00:56:08.543Z,46.6400
2022-10-20T00:56:19.583Z,46.6400
2022-10-20T00:56:30.824Z,46.6460
2022-10-20T00:56:41.866Z,46.6400
2022-10-20T00:56:53.021Z,46.6520
2022-10-20T00:57:04.129Z,46.6520
2022-10-20T00:57:15.262Z,46.6580
2022-10-20T00:57:26.454Z,46.6700
2022-10-20T00:57:37.833Z,46.6740
2022-10-20T00:57:49.183Z,46.6860
2022-10-20T00:58:00.379Z,46.6980
2022-10-20T00:58:11.585Z,46.6920
2022-10-20T00:58:22.773Z,46.6920
2022-10-20T00:58:33.980Z,46.7040
2022-10-20T00:58:45.181Z,46.6980
2022-10-20T00:58:56.381Z,46.7040
2022-10-20T00:59:07.610Z,46.7100
2022-10-20T00:59:18.787Z,46.6920
2022-10-20T00:59:29.973Z,46.6920
2022-10-20T00:59:41.014Z,46.6980
2022-10-20T00:59:52.093Z,46.6860
2022-10-20T01:00:03.259Z,46.6860
2022-10-20T01:00:14.494Z,46.6860
2022-10-20T01:00:25.654Z,46.6620
2022-10-20T01:00:36.854Z,46.6800
2022-10-20T01:00:48.084Z,46.6920
2022-10-20T01:00:59.253Z,46.6980
2022-10-20T01:01:10.454Z,46.6980
2022-10-20T01:01:21.684Z,46.6860
2022-10-20T01:01:32.931Z,46.6920
2022-10-20T01:01:44.097Z,46.6980
2022-10-20T01:01:55.329Z,46.6920
2022-10-20T01:02:06.558Z,46.6920
2022-10-20T01:02:17.653Z,46.6860
2022-10-20T01:02:28.854Z,46.6740
2022-10-20T01:02:40.061Z,46.6960
2022-10-20T01:02:51.261Z,46.6900
2022-10-20T01:03:02.453Z,46.6960
2022-10-20T01:03:13.653Z,46.6920
2022-10-20T01:03:24.856Z,46.6920
2022-10-20T01:03:36.053Z,46.7180
2022-10-20T01:03:47.261Z,46.7100
2022-10-20T01:03:58.463Z,46.6980
2022-10-20T01:04:09.663Z,46.6860
2022-10-20T01:04:20.858Z,46.6920
2022-10-20T01:04:32.061Z,46.6980
2022-10-20T01:04:43.111Z,46.6860
2022-10-20T01:04:54.183Z,46.6860
2022-10-20T01:05:05.338Z,46.6860
2022-10-20T01:05:16.541Z,46.6860
2022-10-20T01:05:27.741Z,46.6860
2022-10-20T01:05:38.788Z,46.6920
2022-10-20T01:05:49.873Z,46.6860
2022-10-20T01:06:01.024Z,46.6860
2022-10-20T01:06:12.241Z,46.6920
2022-10-20T01:06:23.414Z,46.6980
2022-10-20T01:06:34.476Z,46.6980
2022-10-20T01:06:45.534Z,46.6920
2022-10-20T01:06:56.696Z,46.6860
2022-10-20T01:07:07.906Z,46.6980
2022-10-20T01:07:19.094Z,46.6860
2022-10-20T01:07:30.293Z,46.6800
2022-10-20T01:07:41.503Z,46.6740
2022-10-20T01:07:52.544Z,46.6800
2022-10-20T01:08:03.593Z,46.6620
2022-10-20T01:08:14.774Z,46.6800
2022-10-20T01:08:26.037Z,46.6860
2022-10-20T01:08:37.225Z,46.6920
2022-10-20T01:08:48.406Z,46.6860
2022-10-20T01:08:59.513Z,46.6920
2022-10-20T01:09:10.872Z,46.6920
2022-10-20T01:09:21.981Z,46.7040
2022-10-20T01:09:33.172Z,46.6860
2022-10-20T01:09:44.380Z,46.6920
2022-10-20T01:09:55.462Z,46.7040
2022-10-20T01:10:06.524Z,46.6700
2022-10-20T01:10:17.673Z,46.6520
2022-10-20T01:10:28.854Z,46.6460
2022-10-20T01:10:40.053Z,46.6460
2022-10-20T01:10:51.283Z,46.6280
2022-10-20T01:11:02.334Z,46.6380
2022-10-20T01:11:13.404Z,46.6060
2022-10-20T01:11:24.535Z,46.5980
2022-10-20T01:11:35.574Z,46.5980
2022-10-20T01:11:46.643Z,46.5840
2022-10-20T01:11:57.813Z,46.5780
2022-10-20T01:12:08.866Z,46.5780
2022-10-20T01:12:19.913Z,46.5660
2022-10-20T01:12:31.093Z,46.5660
2022-10-20T01:12:42.295Z,46.5840
2022-10-20T01:12:53.504Z,46.5720
2022-10-20T01:13:04.693Z,46.5780
2022-10-20T01:13:15.901Z,46.5720
2022-10-20T01:13:27.093Z,46.5720
2022-10-20T01:13:38.293Z,46.5660
2022-10-20T01:13:49.493Z,46.5760
2022-10-20T01:14:00.693Z,46.5640
2022-10-20T01:14:11.741Z,46.5700
2022-10-20T01:14:22.817Z,46.5440
2022-10-20T01:14:33.974Z,46.5320
2022-10-20T01:14:45.172Z,46.5500
2022-10-20T01:14:56.379Z,46.5500
2022-10-20T01:15:07.581Z,46.5720
2022-10-20T01:15:18.868Z,46.5720
2022-10-20T01:15:29.975Z,46.6040
2022-10-20T01:15:41.231Z,46.5840
2022-10-20T01:15:52.404Z,46.5980
2022-10-20T01:16:03.672Z,46.6100
2022-10-20T01:16:14.724Z,46.6040
2022-10-20T01:16:25.802Z,46.5900
2022-10-20T01:16:36.854Z,46.5980
2022-10-20T01:16:48.054Z,46.6000
2022-10-20T01:16:59.261Z,46.6120
2022-10-20T01:17:10.462Z,46.6120
2022-10-20T01:17:21.654Z,46.6280
2022-10-20T01:17:33.071Z,46.6460
2022-10-20T01:17:44.425Z,46.6840
2022-10-20T01:17:55.582Z,46.6640
2022-10-20T01:18:06.633Z,46.6640
2022-10-20T01:18:17.693Z,46.6500
2022-10-20T01:18:28.864Z,46.6640
2022-10-20T01:18:40.059Z,46.6620
2022-10-20T01:18:51.125Z,46.6680
2022-10-20T01:19:02.192Z,46.6800
2022-10-20T01:19:13.334Z,46.6520
2022-10-20T01:19:24.542Z,46.6640
2022-10-20T01:19:35.742Z,46.6580
2022-10-20T01:19:46.940Z,46.6580
2022-10-20T01:19:58.135Z,46.6700
2022-10-20T01:20:09.215Z,46.6700
2022-10-20T01:20:20.281Z,46.6700
2022-10-20T01:20:31.421Z,46.6640
2022-10-20T01:20:42.613Z,46.6840
2022-10-20T01:20:53.694Z,46.6860
2022-10-20T01:21:04.763Z,46.6620
2022-10-20T01:21:15.893Z,46.6700
2022-10-20T01:21:26.943Z,46.6700
2022-10-20T01:21:37.990Z,46.6780
2022-10-20T01:21:49.194Z,46.6640
2022-10-20T01:22:00.381Z,46.6640
2022-10-20T01:22:11.588Z,46.6780
2022-10-20T01:22:22.784Z,46.6960
2022-10-20T01:22:33.844Z,46.6780
2022-10-20T01:22:44.913Z,46.6840
2022-10-20T01:22:56.053Z,46.6780
2022-10-20T01:23:07.105Z,46.6920
2022-10-20T01:23:18.153Z,46.6620
2022-10-20T01:23:29.213Z,46.6800
2022-10-20T01:23:40.281Z,46.6860
2022-10-20T01:23:51.413Z,46.6740
2022-10-20T01:24:02.614Z,46.6860
2022-10-20T01:24:13.673Z,46.6980
2022-10-20T01:24:24.767Z,46.6860
2022-10-20T01:24:35.901Z,46.6620
2022-10-20T01:24:46.946Z,46.6900
2022-10-20T01:24:57.986Z,46.6700
2022-10-20T01:25:09.024Z,46.6400
2022-10-20T01:25:20.066Z,46.6340
2022-10-20T01:25:31.254Z,46.6280
2022-10-20T01:25:42.454Z,46.6240
2022-10-20T01:25:53.503Z,46.6300
2022-10-20T01:26:04.573Z,46.6180
2022-10-20T01:26:15.734Z,46.6180
2022-10-20T01:26:26.935Z,46.6180
2022-10-20T01:26:37.991Z,46.6300
2022-10-20T01:26:49.044Z,46.6380
2022-10-20T01:27:00.101Z,46.6240
2022-10-20T01:27:11.171Z,46.6060
2022-10-20T01:27:22.302Z,46.6160
2022-10-20T01:27:33.548Z,46.5900
2022-10-20T01:27:44.724Z,46.6160
2022-10-20T01:27:55.893Z,46.6040
2022-10-20T01:28:06.951Z,46.6240
2022-10-20T01:28:18.022Z,46.6060
2022-10-20T01:28:29.191Z,46.6180
2022-10-20T01:28:40.380Z,46.6000
2022-10-20T01:28:51.431Z,46.6240
2022-10-20T01:29:02.504Z,46.6120
2022-10-20T01:29:13.551Z,46.6180
2022-10-20T01:29:24.614Z,46.6000
2022-10-20T01:29:35.733Z,46.6120
2022-10-20T01:29:46.934Z,46.6180
2022-10-20T01:29:58.134Z,46.6380
2022-10-20T01:30:09.184Z,46.6340
2022-10-20T01:30:20.251Z,46.6340
2022-10-20T01:30:31.413Z,46.6280
2022-10-20T01:30:42.613Z,46.6460
2022-10-20T01:30:53.812Z,46.6460
2022-10-20T01:31:05.045Z,46.6400
2022-10-20T01:31:16.222Z,46.6520
2022-10-20T01:31:27.421Z,46.6520
2022-10-20T01:31:38.624Z,46.6460
2022-10-20T01:31:49.664Z,46.6400
2022-10-20T01:32:00.710Z,46.6280
2022-10-20T01:32:11.893Z,46.6160
2022-10-20T01:32:23.111Z,46.6380
2022-10-20T01:32:34.294Z,46.6280
2022-10-20T01:32:45.512Z,46.6340
2022-10-20T01:32:56.621Z,46.6400
2022-10-20T01:33:07.683Z,46.6340
2022-10-20T01:33:18.865Z,46.6220
2022-10-20T01:33:29.963Z,46.6400
2022-10-20T01:33:41.014Z,46.6400
2022-10-20T01:33:52.063Z,46.6400
2022-10-20T01:34:03.115Z,46.6340
2022-10-20T01:34:14.174Z,46.6400
2022-10-20T01:34:25.340Z,46.6460
2022-10-20T01:34:36.394Z,46.6580
2022-10-20T01:34:50.545Z,46.6700
2022-10-20T01:35:04.434Z,46.8960
2022-10-20T01:35:15.574Z,46.8210
2022-10-20T01:35:26.782Z,46.7300
2022-10-20T01:35:37.831Z,46.7180
2022-10-20T01:35:48.904Z,46.6860
2022-10-20T01:35:59.954Z,46.6860
2022-10-20T01:36:11.043Z,46.6680
2022-10-20T01:36:22.136Z,46.6800
2022-10-20T01:36:33.340Z,46.6860
2022-10-20T01:36:44.539Z,46.6920
2022-10-20T01:36:55.733Z,46.6920
2022-10-20T01:37:06.932Z,46.6960
2022-10-20T01:37:28.340Z,46.6700
2022-10-20T01:37:48.639Z,46.9020
2022-10-20T01:37:52.606Z,47.0050
2022-10-20T01:38:03.943Z,46.8950
2022-10-20T01:38:15.104Z,46.7710
2022-10-20T01:38:26.293Z,46.7100
2022-10-20T01:38:37.351Z,46.7040
2022-10-20T01:38:48.428Z,46.6520
2022-10-20T01:38:59.574Z,46.6400
2022-10-20T01:39:10.782Z,46.6380
2022-10-20T01:39:21.982Z,46.6240
2022-10-20T01:39:33.183Z,46.6180
2022-10-20T01:39:44.373Z,46.6060
2022-10-20T01:39:55.573Z,46.6100
2022-10-20T01:40:06.793Z,46.6100
2022-10-20T01:40:17.981Z,46.6040
2022-10-20T01:40:29.179Z,46.6040
2022-10-20T01:40:40.215Z,46.5840
2022-10-20T01:40:51.263Z,46.5780
2022-10-20T01:41:02.462Z,46.5780
2022-10-20T01:41:13.683Z,46.5900
2022-10-20T01:41:24.854Z,46.5780
2022-10-20T01:41:36.066Z,46.5840
2022-10-20T01:41:47.104Z,46.5780
2022-10-20T01:41:58.145Z,46.5660
2022-10-20T01:42:09.205Z,46.5660
2022-10-20T01:42:20.243Z,46.5660
2022-10-20T01:42:31.454Z,46.5540
2022-10-20T01:42:42.631Z,46.5660
2022-10-20T01:42:53.674Z,46.5900
2022-10-20T01:43:04.733Z,46.5840
2022-10-20T01:43:15.893Z,46.5980
2022-10-20T01:43:27.102Z,46.6180
2022-10-20T01:43:38.294Z,46.6000
2022-10-20T01:43:49.493Z,46.6180
2022-10-20T01:44:00.701Z,46.6060
2022-10-20T01:44:11.893Z,46.6180
2022-10-20T01:44:23.101Z,46.6120
2022-10-20T01:44:34.301Z,46.6240
2022-10-20T01:44:45.499Z,46.6400
2022-10-20T01:44:56.533Z,46.6460
2022-10-20T01:45:07.592Z,46.6280
2022-10-20T01:45:18.776Z,46.6460
2022-10-20T01:45:29.813Z,46.6400
2022-10-20T01:45:40.863Z,46.6280
2022-10-20T01:45:52.061Z,46.6460
2022-10-20T01:46:03.111Z,46.6280
2022-10-20T01:46:14.194Z,46.6280
2022-10-20T01:46:25.344Z,46.6340
2022-10-20T01:46:36.533Z,46.6300
2022-10-20T01:46:47.732Z,46.6300
2022-10-20T01:46:58.772Z,46.6300
2022-10-20T01:47:09.831Z,46.6240
2022-10-20T01:47:21.013Z,46.6120
2022-10-20T01:47:32.213Z,46.6380
2022-10-20T01:47:43.420Z,46.6380
2022-10-20T01:47:54.613Z,46.6300
2022-10-20T01:48:05.824Z,46.6240
2022-10-20T01:48:16.885Z,46.6240
2022-10-20T01:48:27.945Z,46.6060
2022-10-20T01:48:39.093Z,46.6000
2022-10-20T01:48:50.301Z,46.6040
2022-10-20T01:49:01.352Z,46.6100
2022-10-20T01:49:12.414Z,46.5840
2022-10-20T01:49:23.454Z,46.5980
2022-10-20T01:49:34.516Z,46.5980
2022-10-20T01:49:45.650Z,46.5900
2022-10-20T01:49:56.708Z,46.5980
2022-10-20T01:50:07.743Z,46.5900
2022-10-20T01:50:18.812Z,46.5980
2022-10-20T01:50:29.853Z,46.5900
2022-10-20T01:50:41.013Z,46.6040
2022-10-20T01:50:52.215Z,46.6220
2022-10-20T01:51:03.266Z,46.6120
2022-10-20T01:51:14.324Z,46.6060
2022-10-20T01:51:25.513Z,46.6120
2022-10-20T01:51:36.639Z,46.6300
2022-10-20T01:51:47.702Z,46.6300
2022-10-20T01:51:58.774Z,46.6240
2022-10-20T01:52:09.992Z,46.6240
2022-10-20T01:52:21.175Z,46.6280
2022-10-20T01:52:32.384Z,46.6460
2022-10-20T01:52:43.574Z,46.6400
2022-10-20T01:52:54.773Z,46.6340
2022-10-20T01:53:05.981Z,46.6400
2022-10-20T01:53:17.193Z,46.6520
2022-10-20T01:53:28.392Z,46.6640
2022-10-20T01:53:39.453Z,46.6580
2022-10-20T01:53:50.556Z,46.6640
2022-10-20T01:54:01.658Z,46.6580
2022-10-20T01:54:12.704Z,46.6580
2022-10-20T01:54:23.742Z,46.6460
2022-10-20T01:54:34.934Z,46.6520
2022-10-20T01:54:46.134Z,46.6580
2022-10-20T01:54:57.333Z,46.6700
2022-10-20T01:55:08.533Z,46.6780
2022-10-20T01:55:19.583Z,46.6840
2022-10-20T01:55:30.628Z,46.6840
2022-10-20T01:55:41.713Z,46.6780
2022-10-20T01:55:52.754Z,46.6640
2022-10-20T01:56:03.893Z,46.6580
2022-10-20T01:56:15.123Z,46.6640
2022-10-20T01:56:26.213Z,46.6840
2022-10-20T01:56:37.271Z,46.6900
2022-10-20T01:56:48.375Z,46.6960
2022-10-20T01:56:59.433Z,46.6840
2022-10-20T01:57:10.522Z,46.6840
2022-10-20T01:57:21.688Z,46.6860
2022-10-20T01:57:32.861Z,46.6980
2022-10-20T01:57:44.054Z,46.6980
2022-10-20T01:57:55.261Z,46.6800
2022-10-20T01:58:06.462Z,46.6920
2022-10-20T01:58:17.653Z,46.7040
2022-10-20T01:58:28.853Z,46.6840
2022-10-20T01:58:40.088Z,46.6900
2022-10-20T01:58:51.260Z,46.7020
2022-10-20T01:59:02.311Z,46.6980
2022-10-20T01:59:13.384Z,46.6980
2022-10-20T01:59:24.534Z,46.6960
2022-10-20T01:59:35.735Z,46.6840
2022-10-20T01:59:46.843Z,46.6900
2022-10-20T01:59:57.913Z,46.6700
2022-10-20T02:00:08.973Z,46.6700
2022-10-20T02:00:20.052Z,46.6840
2022-10-20T02:00:31.092Z,46.6780
2022-10-20T02:00:42.420Z,46.6780
2022-10-20T02:00:53.586Z,46.7080
2022-10-20T02:01:04.693Z,46.7100
2022-10-20T02:01:15.990Z,46.7180
2022-10-20T02:01:27.171Z,46.7240
2022-10-20T02:01:38.383Z,46.7300
2022-10-20T02:01:49.530Z,46.7300
2022-10-20T02:02:00.695Z,46.7240
2022-10-20T02:02:11.735Z,46.7040
2022-10-20T02:02:22.793Z,46.7100
2022-10-20T02:02:34.306Z,46.6980
2022-10-20T02:02:45.863Z,46.7360
2022-10-20T02:02:57.013Z,46.6980
2022-10-20T02:03:08.064Z,46.6960
2022-10-20T02:03:19.142Z,46.6840
2022-10-20T02:03:30.293Z,46.6640
2022-10-20T02:03:41.341Z,46.6780
2022-10-20T02:03:52.383Z,46.6520
2022-10-20T02:04:03.580Z,46.6400
2022-10-20T02:04:14.622Z,46.6400
2022-10-20T02:04:25.694Z,46.6240
2022-10-20T02:04:36.853Z,46.6180
2022-10-20T02:04:48.061Z,46.6120
2022-10-20T02:04:59.261Z,46.6160
2022-10-20T02:05:10.462Z,46.6100
2022-10-20T02:05:21.654Z,46.6220
2022-10-20T02:05:32.854Z,46.6100
2022-10-20T02:05:44.054Z,46.5980
2022-10-20T02:05:55.257Z,46.6160
2022-10-20T02:06:06.461Z,46.6040
2022-10-20T02:06:17.543Z,46.5980
2022-10-20T02:06:28.624Z,46.5840
2022-10-20T02:06:39.681Z,46.5900
2022-10-20T02:06:50.762Z,46.5900
2022-10-20T02:07:01.824Z,46.5660
2022-10-20T02:07:13.013Z,46.5840
2022-10-20T02:07:24.061Z,46.5840
2022-10-20T02:07:35.107Z,46.5720
2022-10-20T02:07:46.300Z,46.5700
2022-10-20T02:07:57.494Z,46.5820
2022-10-20T02:08:08.702Z,46.5880
2022-10-20T02:08:19.898Z,46.5820
2022-10-20T02:08:31.171Z,46.5760
2022-10-20T02:08:42.353Z,46.5900
2022-10-20T02:08:53.558Z,46.5780
2022-10-20T02:09:04.798Z,46.5980
2022-10-20T02:09:15.894Z,46.5900
2022-10-20T02:09:26.933Z,46.5900
2022-10-20T02:09:37.982Z,46.5840
2022-10-20T02:09:49.265Z,46.5720
2022-10-20T02:10:00.380Z,46.5980
2022-10-20T02:10:11.581Z,46.5980
2022-10-20T02:10:22.781Z,46.6100
2022-10-20T02:10:33.982Z,46.6160
2022-10-20T02:10:45.174Z,46.6220
2022-10-20T02:10:56.373Z,46.6380
2022-10-20T02:11:07.573Z,46.6300
2022-10-20T02:11:18.806Z,46.6380
2022-10-20T02:11:29.863Z,46.6300
2022-10-20T02:11:40.923Z,46.6440
2022-10-20T02:11:52.062Z,46.6300
2022-10-20T02:12:03.256Z,46.6300
2022-10-20T02:12:14.462Z,46.6300
2022-10-20T02:12:25.653Z,46.6440
2022-10-20T02:12:37.093Z,46.6460
2022-10-20T02:12:48.424Z,46.6780
2022-10-20T02:12:59.471Z,46.6640
2022-10-20T02:13:10.542Z,46.6580
2022-10-20T02:13:21.655Z,46.6700
2022-10-20T02:13:32.703Z,46.6580
2022-10-20T02:13:43.748Z,46.6900
2022-10-20T02:13:54.933Z,46.6900
2022-10-20T02:14:06.141Z,46.6980
2022-10-20T02:14:17.341Z,46.7180
2022-10-20T02:14:28.533Z,46.7040
2022-10-20T02:14:39.583Z,46.6860
2022-10-20T02:14:50.631Z,46.6840
2022-10-20T02:15:01.823Z,46.6900
2022-10-20T02:15:13.021Z,46.6900
2022-10-20T02:15:24.223Z,46.7040
2022-10-20T02:15:35.414Z,46.7100